sensor_id;sensor_type;location;lat;lon;timestamp;P1;durP1;ratioP1;P2;durP2;ratioP2
76196;SDS011;64974;53.144;17.962;2024-03-08T00:00:33;18.85;;;8.10;;
76196;SDS011;64974;53.144;17.962;2024-03-08T00:02:59;17.80;;;8.15;;
76196;SDS011;64974;53.144;17.962;2024-03-08T00:05:28;22.10;;;9.13;;
76196;SDS011;64974;53.144;17.962;2024-03-08T00:07:55;29.88;;;11.32;;
76196;SDS011;64974;53.144;17.962;2024-03-08T00:10:21;30.65;;;12.15;;
76196;SDS011;64974;53.144;17.962;2024-03-08T00:12:48;29.00;;;11.60;;
76196;SDS011;64974;53.144;17.962;2024-03-08T00:15:16;23.20;;;9.70;;
76196;SDS011;64974;53.144;17.962;2024-03-08T00:17:44;22.58;;;8.50;;
76196;SDS011;64974;53.144;17.962;2024-03-08T00:20:11;16.88;;;6.30;;
76196;SDS011;64974;53.144;17.962;2024-03-08T00:22:39;20.40;;;7.18;;
76196;SDS011;64974;53.144;17.962;2024-03-08T00:25:07;24.30;;;7.43;;
76196;SDS011;64974;53.144;17.962;2024-03-08T00:27:34;18.73;;;8.05;;
76196;SDS011;64974;53.144;17.962;2024-03-08T00:30:01;19.30;;;8.52;;
76196;SDS011;64974;53.144;17.962;2024-03-08T00:32:28;15.00;;;6.28;;
76196;SDS011;64974;53.144;17.962;2024-03-08T00:34:56;17.70;;;6.47;;
76196;SDS011;64974;53.144;17.962;2024-03-08T00:37:23;15.32;;;6.53;;
76196;SDS011;64974;53.144;17.962;2024-03-08T00:42:18;17.52;;;6.38;;
76196;SDS011;64974;53.144;17.962;2024-03-08T00:44:44;14.65;;;5.85;;
76196;SDS011;64974;53.144;17.962;2024-03-08T00:47:11;16.90;;;6.55;;
76196;SDS011;64974;53.144;17.962;2024-03-08T00:52:04;14.80;;;6.05;;
76196;SDS011;64974;53.144;17.962;2024-03-08T00:54:33;23.25;;;7.80;;
76196;SDS011;64974;53.144;17.962;2024-03-08T00:57:02;16.95;;;7.80;;
76196;SDS011;64974;53.144;17.962;2024-03-08T00:59:29;17.70;;;8.13;;
76196;SDS011;64974;53.144;17.962;2024-03-08T01:01:57;22.08;;;8.55;;
76196;SDS011;64974;53.144;17.962;2024-03-08T01:06:53;21.98;;;7.47;;
76196;SDS011;64974;53.144;17.962;2024-03-08T01:09:21;22.67;;;7.70;;
76196;SDS011;64974;53.144;17.962;2024-03-08T01:11:47;19.33;;;7.85;;
76196;SDS011;64974;53.144;17.962;2024-03-08T01:16:42;19.48;;;7.30;;
76196;SDS011;64974;53.144;17.962;2024-03-08T01:19:08;22.75;;;8.38;;
76196;SDS011;64974;53.144;17.962;2024-03-08T01:21:35;24.15;;;9.13;;
76196;SDS011;64974;53.144;17.962;2024-03-08T01:24:02;21.67;;;9.30;;
76196;SDS011;64974;53.144;17.962;2024-03-08T01:26:28;28.08;;;9.68;;
76196;SDS011;64974;53.144;17.962;2024-03-08T01:28:55;29.95;;;10.10;;
76196;SDS011;64974;53.144;17.962;2024-03-08T01:31:23;31.63;;;11.23;;
76196;SDS011;64974;53.144;17.962;2024-03-08T01:33:50;30.83;;;10.52;;
76196;SDS011;64974;53.144;17.962;2024-03-08T01:36:16;23.30;;;8.85;;
76196;SDS011;64974;53.144;17.962;2024-03-08T01:38:44;22.17;;;9.13;;
76196;SDS011;64974;53.144;17.962;2024-03-08T01:41:10;22.95;;;8.98;;
76196;SDS011;64974;53.144;17.962;2024-03-08T01:43:38;19.40;;;7.85;;
76196;SDS011;64974;53.144;17.962;2024-03-08T01:48:32;17.17;;;7.90;;
76196;SDS011;64974;53.144;17.962;2024-03-08T01:50:59;20.90;;;8.45;;
76196;SDS011;64974;53.144;17.962;2024-03-08T01:53:26;19.38;;;7.75;;
76196;SDS011;64974;53.144;17.962;2024-03-08T01:55:54;16.83;;;7.45;;
76196;SDS011;64974;53.144;17.962;2024-03-08T01:58:22;20.48;;;7.75;;
76196;SDS011;64974;53.144;17.962;2024-03-08T02:00:49;21.00;;;9.60;;
76196;SDS011;64974;53.144;17.962;2024-03-08T02:03:16;18.85;;;8.25;;
76196;SDS011;64974;53.144;17.962;2024-03-08T02:05:43;21.55;;;8.05;;
76196;SDS011;64974;53.144;17.962;2024-03-08T02:08:10;18.05;;;7.95;;
76196;SDS011;64974;53.144;17.962;2024-03-08T02:10:39;17.02;;;8.35;;
76196;SDS011;64974;53.144;17.962;2024-03-08T02:13:06;16.42;;;7.55;;
76196;SDS011;64974;53.144;17.962;2024-03-08T02:18:18;20.90;;;7.93;;
76196;SDS011;64974;53.144;17.962;2024-03-08T02:23:13;26.80;;;7.70;;
76196;SDS011;64974;53.144;17.962;2024-03-08T02:25:40;18.90;;;7.22;;
76196;SDS011;64974;53.144;17.962;2024-03-08T02:28:08;16.35;;;7.03;;
76196;SDS011;64974;53.144;17.962;2024-03-08T02:30:35;18.92;;;6.55;;
76196;SDS011;64974;53.144;17.962;2024-03-08T02:33:02;20.20;;;7.20;;
76196;SDS011;64974;53.144;17.962;2024-03-08T02:35:28;22.08;;;6.80;;
76196;SDS011;64974;53.144;17.962;2024-03-08T02:40:23;14.35;;;6.28;;
76196;SDS011;64974;53.144;17.962;2024-03-08T02:42:49;18.65;;;7.07;;
76196;SDS011;64974;53.144;17.962;2024-03-08T02:45:16;14.32;;;6.55;;
76196;SDS011;64974;53.144;17.962;2024-03-08T02:47:43;19.75;;;6.05;;
76196;SDS011;64974;53.144;17.962;2024-03-08T02:50:10;18.33;;;6.55;;
76196;SDS011;64974;53.144;17.962;2024-03-08T02:52:41;21.45;;;8.40;;
76196;SDS011;64974;53.144;17.962;2024-03-08T02:55:09;22.08;;;7.85;;
76196;SDS011;64974;53.144;17.962;2024-03-08T02:57:36;17.55;;;6.93;;
76196;SDS011;64974;53.144;17.962;2024-03-08T03:00:03;16.52;;;7.00;;
76196;SDS011;64974;53.144;17.962;2024-03-08T03:02:30;17.10;;;7.57;;
76196;SDS011;64974;53.144;17.962;2024-03-08T03:04:56;22.00;;;7.72;;
76196;SDS011;64974;53.144;17.962;2024-03-08T03:09:52;16.17;;;6.55;;
76196;SDS011;64974;53.144;17.962;2024-03-08T03:12:20;18.60;;;6.68;;
76196;SDS011;64974;53.144;17.962;2024-03-08T03:14:47;18.15;;;6.90;;
76196;SDS011;64974;53.144;17.962;2024-03-08T03:17:14;16.75;;;7.38;;
76196;SDS011;64974;53.144;17.962;2024-03-08T03:19:41;16.27;;;7.50;;
76196;SDS011;64974;53.144;17.962;2024-03-08T03:22:08;18.00;;;7.45;;
76196;SDS011;64974;53.144;17.962;2024-03-08T03:24:35;18.42;;;7.15;;
76196;SDS011;64974;53.144;17.962;2024-03-08T03:27:03;17.67;;;6.63;;
76196;SDS011;64974;53.144;17.962;2024-03-08T03:29:37;16.15;;;6.68;;
76196;SDS011;64974;53.144;17.962;2024-03-08T03:32:04;15.95;;;6.22;;
76196;SDS011;64974;53.144;17.962;2024-03-08T03:34:32;15.18;;;6.47;;
76196;SDS011;64974;53.144;17.962;2024-03-08T03:37:01;16.20;;;6.85;;
76196;SDS011;64974;53.144;17.962;2024-03-08T03:41:56;16.63;;;5.55;;
76196;SDS011;64974;53.144;17.962;2024-03-08T03:44:23;14.35;;;6.30;;
76196;SDS011;64974;53.144;17.962;2024-03-08T03:46:51;19.25;;;8.38;;
76196;SDS011;64974;53.144;17.962;2024-03-08T03:49:18;23.17;;;8.48;;
76196;SDS011;64974;53.144;17.962;2024-03-08T03:51:44;21.33;;;7.78;;
76196;SDS011;64974;53.144;17.962;2024-03-08T03:54:14;22.85;;;8.43;;
76196;SDS011;64974;53.144;17.962;2024-03-08T03:56:40;18.60;;;7.78;;
76196;SDS011;64974;53.144;17.962;2024-03-08T03:59:07;22.27;;;8.82;;
76196;SDS011;64974;53.144;17.962;2024-03-08T04:01:34;25.00;;;8.30;;
76196;SDS011;64974;53.144;17.962;2024-03-08T04:04:02;23.17;;;9.05;;
76196;SDS011;64974;53.144;17.962;2024-03-08T04:06:28;24.52;;;9.70;;
76196;SDS011;64974;53.144;17.962;2024-03-08T04:08:55;25.05;;;8.85;;
76196;SDS011;64974;53.144;17.962;2024-03-08T04:11:21;18.80;;;7.68;;
76196;SDS011;64974;53.144;17.962;2024-03-08T04:13:48;22.38;;;8.50;;
76196;SDS011;64974;53.144;17.962;2024-03-08T04:16:14;22.95;;;8.98;;
76196;SDS011;64974;53.144;17.962;2024-03-08T04:18:41;19.70;;;8.38;;
76196;SDS011;64974;53.144;17.962;2024-03-08T04:21:10;19.35;;;8.18;;
76196;SDS011;64974;53.144;17.962;2024-03-08T04:23:36;28.80;;;8.27;;
76196;SDS011;64974;53.144;17.962;2024-03-08T04:26:03;23.88;;;8.77;;
76196;SDS011;64974;53.144;17.962;2024-03-08T04:28:31;25.25;;;9.05;;
76196;SDS011;64974;53.144;17.962;2024-03-08T04:30:58;27.15;;;9.73;;
76196;SDS011;64974;53.144;17.962;2024-03-08T04:33:25;21.52;;;8.10;;
76196;SDS011;64974;53.144;17.962;2024-03-08T04:38:20;21.70;;;7.88;;
76196;SDS011;64974;53.144;17.962;2024-03-08T04:40:46;22.52;;;9.05;;
76196;SDS011;64974;53.144;17.962;2024-03-08T04:43:13;21.38;;;8.30;;
76196;SDS011;64974;53.144;17.962;2024-03-08T04:45:40;15.77;;;7.78;;
76196;SDS011;64974;53.144;17.962;2024-03-08T04:48:08;17.60;;;7.38;;
76196;SDS011;64974;53.144;17.962;2024-03-08T04:50:36;17.10;;;7.18;;
76196;SDS011;64974;53.144;17.962;2024-03-08T04:55:34;14.10;;;7.03;;
76196;SDS011;64974;53.144;17.962;2024-03-08T04:58:02;21.48;;;8.18;;
76196;SDS011;64974;53.144;17.962;2024-03-08T05:00:30;19.80;;;7.75;;
76196;SDS011;64974;53.144;17.962;2024-03-08T05:02:57;15.57;;;6.88;;
76196;SDS011;64974;53.144;17.962;2024-03-08T05:05:23;18.05;;;7.07;;
76196;SDS011;64974;53.144;17.962;2024-03-08T05:07:51;17.83;;;8.77;;
76196;SDS011;64974;53.144;17.962;2024-03-08T05:10:18;27.45;;;10.63;;
76196;SDS011;64974;53.144;17.962;2024-03-08T05:12:46;23.98;;;9.38;;
76196;SDS011;64974;53.144;17.962;2024-03-08T05:15:13;16.63;;;7.82;;
76196;SDS011;64974;53.144;17.962;2024-03-08T05:17:39;16.83;;;7.00;;
76196;SDS011;64974;53.144;17.962;2024-03-08T05:20:07;15.38;;;6.07;;
76196;SDS011;64974;53.144;17.962;2024-03-08T05:22:37;19.92;;;6.75;;
76196;SDS011;64974;53.144;17.962;2024-03-08T05:25:05;18.17;;;7.97;;
76196;SDS011;64974;53.144;17.962;2024-03-08T05:27:33;18.77;;;7.43;;
76196;SDS011;64974;53.144;17.962;2024-03-08T05:30:01;20.30;;;8.35;;
76196;SDS011;64974;53.144;17.962;2024-03-08T05:32:29;14.23;;;7.60;;
76196;SDS011;64974;53.144;17.962;2024-03-08T05:34:55;20.50;;;7.72;;
76196;SDS011;64974;53.144;17.962;2024-03-08T05:37:22;16.42;;;6.57;;
76196;SDS011;64974;53.144;17.962;2024-03-08T05:39:48;17.77;;;7.13;;
76196;SDS011;64974;53.144;17.962;2024-03-08T05:42:15;14.75;;;6.30;;
76196;SDS011;64974;53.144;17.962;2024-03-08T05:44:41;19.02;;;7.80;;
76196;SDS011;64974;53.144;17.962;2024-03-08T05:47:10;16.13;;;6.68;;
76196;SDS011;64974;53.144;17.962;2024-03-08T05:49:36;14.35;;;5.65;;
76196;SDS011;64974;53.144;17.962;2024-03-08T05:52:04;17.17;;;6.18;;
76196;SDS011;64974;53.144;17.962;2024-03-08T05:54:30;14.05;;;6.47;;
76196;SDS011;64974;53.144;17.962;2024-03-08T05:56:58;21.70;;;7.88;;
76196;SDS011;64974;53.144;17.962;2024-03-08T05:59:24;18.50;;;7.80;;
76196;SDS011;64974;53.144;17.962;2024-03-08T06:01:52;19.75;;;7.50;;
76196;SDS011;64974;53.144;17.962;2024-03-08T06:04:21;16.15;;;7.60;;
76196;SDS011;64974;53.144;17.962;2024-03-08T06:06:54;16.60;;;6.18;;
76196;SDS011;64974;53.144;17.962;2024-03-08T06:09:23;17.08;;;7.97;;
76196;SDS011;64974;53.144;17.962;2024-03-08T06:11:52;20.00;;;7.53;;
76196;SDS011;64974;53.144;17.962;2024-03-08T06:14:19;22.02;;;8.82;;
76196;SDS011;64974;53.144;17.962;2024-03-08T06:16:48;25.73;;;9.13;;
76196;SDS011;64974;53.144;17.962;2024-03-08T06:19:16;24.77;;;9.85;;
76196;SDS011;64974;53.144;17.962;2024-03-08T06:21:43;29.52;;;12.48;;
76196;SDS011;64974;53.144;17.962;2024-03-08T06:24:12;35.63;;;14.15;;
76196;SDS011;64974;53.144;17.962;2024-03-08T06:26:40;32.95;;;13.77;;
76196;SDS011;64974;53.144;17.962;2024-03-08T06:29:07;42.13;;;15.63;;
76196;SDS011;64974;53.144;17.962;2024-03-08T06:31:35;42.17;;;16.63;;
76196;SDS011;64974;53.144;17.962;2024-03-08T06:34:04;47.65;;;18.90;;
76196;SDS011;64974;53.144;17.962;2024-03-08T06:36:32;48.10;;;19.08;;
76196;SDS011;64974;53.144;17.962;2024-03-08T06:39:05;42.25;;;17.63;;
76196;SDS011;64974;53.144;17.962;2024-03-08T06:41:35;37.95;;;14.55;;
76196;SDS011;64974;53.144;17.962;2024-03-08T06:44:02;37.50;;;14.10;;
76196;SDS011;64974;53.144;17.962;2024-03-08T06:46:29;40.28;;;14.93;;
76196;SDS011;64974;53.144;17.962;2024-03-08T06:48:56;38.72;;;13.48;;
76196;SDS011;64974;53.144;17.962;2024-03-08T06:51:22;33.65;;;12.93;;
76196;SDS011;64974;53.144;17.962;2024-03-08T06:53:49;31.90;;;14.50;;
76196;SDS011;64974;53.144;17.962;2024-03-08T06:56:18;32.10;;;14.63;;
76196;SDS011;64974;53.144;17.962;2024-03-08T06:58:45;29.55;;;12.60;;
76196;SDS011;64974;53.144;17.962;2024-03-08T07:01:12;34.45;;;13.55;;
76196;SDS011;64974;53.144;17.962;2024-03-08T07:03:41;36.80;;;14.15;;
76196;SDS011;64974;53.144;17.962;2024-03-08T07:06:09;33.92;;;12.82;;
76196;SDS011;64974;53.144;17.962;2024-03-08T07:11:02;32.38;;;11.93;;
76196;SDS011;64974;53.144;17.962;2024-03-08T07:13:30;22.95;;;10.93;;
76196;SDS011;64974;53.144;17.962;2024-03-08T07:15:58;29.80;;;13.68;;
76196;SDS011;64974;53.144;17.962;2024-03-08T07:18:26;26.83;;;10.88;;
76196;SDS011;64974;53.144;17.962;2024-03-08T07:20:54;33.05;;;12.15;;
76196;SDS011;64974;53.144;17.962;2024-03-08T07:23:21;29.38;;;11.35;;
76196;SDS011;64974;53.144;17.962;2024-03-08T07:26:02;39.70;;;12.52;;
76196;SDS011;64974;53.144;17.962;2024-03-08T07:28:31;26.80;;;10.40;;
76196;SDS011;64974;53.144;17.962;2024-03-08T07:30:58;28.30;;;12.10;;
76196;SDS011;64974;53.144;17.962;2024-03-08T07:33:42;25.33;;;11.02;;
76196;SDS011;64974;53.144;17.962;2024-03-08T07:36:09;24.90;;;11.18;;
76196;SDS011;64974;53.144;17.962;2024-03-08T07:38:37;25.88;;;9.55;;
76196;SDS011;64974;53.144;17.962;2024-03-08T07:41:05;29.92;;;11.73;;
76196;SDS011;64974;53.144;17.962;2024-03-08T07:43:34;30.13;;;11.13;;
76196;SDS011;64974;53.144;17.962;2024-03-08T07:46:02;29.50;;;10.45;;
76196;SDS011;64974;53.144;17.962;2024-03-08T07:48:30;28.73;;;11.15;;
76196;SDS011;64974;53.144;17.962;2024-03-08T07:53:22;26.05;;;10.32;;
76196;SDS011;64974;53.144;17.962;2024-03-08T07:55:50;29.52;;;11.85;;
76196;SDS011;64974;53.144;17.962;2024-03-08T07:58:17;32.42;;;14.52;;
76196;SDS011;64974;53.144;17.962;2024-03-08T08:00:45;32.08;;;12.23;;
76196;SDS011;64974;53.144;17.962;2024-03-08T08:03:14;30.83;;;13.15;;
76196;SDS011;64974;53.144;17.962;2024-03-08T08:05:46;33.25;;;13.20;;
76196;SDS011;64974;53.144;17.962;2024-03-08T08:08:15;29.70;;;12.60;;
76196;SDS011;64974;53.144;17.962;2024-03-08T08:10:41;30.00;;;12.98;;
76196;SDS011;64974;53.144;17.962;2024-03-08T08:13:08;28.85;;;13.07;;
76196;SDS011;64974;53.144;17.962;2024-03-08T08:15:34;35.20;;;12.88;;
76196;SDS011;64974;53.144;17.962;2024-03-08T08:20:30;33.38;;;13.07;;
76196;SDS011;64974;53.144;17.962;2024-03-08T08:22:57;31.88;;;13.48;;
76196;SDS011;64974;53.144;17.962;2024-03-08T08:25:24;37.08;;;13.75;;
76196;SDS011;64974;53.144;17.962;2024-03-08T08:27:51;33.28;;;13.38;;
76196;SDS011;64974;53.144;17.962;2024-03-08T08:30:19;35.55;;;14.00;;
76196;SDS011;64974;53.144;17.962;2024-03-08T08:32:45;31.92;;;14.30;;
76196;SDS011;64974;53.144;17.962;2024-03-08T08:35:15;33.25;;;15.65;;
76196;SDS011;64974;53.144;17.962;2024-03-08T08:37:41;37.63;;;15.15;;
76196;SDS011;64974;53.144;17.962;2024-03-08T08:40:09;38.20;;;15.00;;
76196;SDS011;64974;53.144;17.962;2024-03-08T08:42:39;36.38;;;15.20;;
76196;SDS011;64974;53.144;17.962;2024-03-08T08:45:06;36.38;;;13.93;;
76196;SDS011;64974;53.144;17.962;2024-03-08T08:47:34;38.40;;;15.75;;
76196;SDS011;64974;53.144;17.962;2024-03-08T08:52:31;36.35;;;15.20;;
76196;SDS011;64974;53.144;17.962;2024-03-08T08:54:59;39.42;;;15.43;;
76196;SDS011;64974;53.144;17.962;2024-03-08T08:57:28;35.28;;;15.68;;
76196;SDS011;64974;53.144;17.962;2024-03-08T08:59:55;31.58;;;13.30;;
76196;SDS011;64974;53.144;17.962;2024-03-08T09:04:48;33.08;;;14.65;;
76196;SDS011;64974;53.144;17.962;2024-03-08T09:07:15;44.83;;;14.90;;
76196;SDS011;64974;53.144;17.962;2024-03-08T09:09:45;40.15;;;16.48;;
76196;SDS011;64974;53.144;17.962;2024-03-08T09:12:11;40.47;;;15.55;;
76196;SDS011;64974;53.144;17.962;2024-03-08T09:14:39;30.77;;;14.38;;
76196;SDS011;64974;53.144;17.962;2024-03-08T09:17:06;31.88;;;14.15;;
76196;SDS011;64974;53.144;17.962;2024-03-08T09:19:34;30.20;;;13.25;;
76196;SDS011;64974;53.144;17.962;2024-03-08T09:22:02;37.22;;;13.57;;
76196;SDS011;64974;53.144;17.962;2024-03-08T09:24:30;31.52;;;14.40;;
76196;SDS011;64974;53.144;17.962;2024-03-08T09:27:00;31.05;;;13.93;;
76196;SDS011;64974;53.144;17.962;2024-03-08T09:29:28;29.02;;;12.27;;
76196;SDS011;64974;53.144;17.962;2024-03-08T09:31:56;30.02;;;12.80;;
76196;SDS011;64974;53.144;17.962;2024-03-08T09:34:24;30.73;;;13.82;;
76196;SDS011;64974;53.144;17.962;2024-03-08T09:36:51;29.75;;;13.02;;
76196;SDS011;64974;53.144;17.962;2024-03-08T09:39:20;29.40;;;12.70;;
76196;SDS011;64974;53.144;17.962;2024-03-08T09:41:48;30.80;;;12.90;;
76196;SDS011;64974;53.144;17.962;2024-03-08T09:44:17;22.45;;;9.40;;
76196;SDS011;64974;53.144;17.962;2024-03-08T09:46:45;17.85;;;7.18;;
76196;SDS011;64974;53.144;17.962;2024-03-08T09:49:12;14.90;;;7.63;;
76196;SDS011;64974;53.144;17.962;2024-03-08T09:51:41;23.73;;;9.75;;
76196;SDS011;64974;53.144;17.962;2024-03-08T09:56:34;26.77;;;8.82;;
76196;SDS011;64974;53.144;17.962;2024-03-08T09:59:01;25.23;;;8.27;;
76196;SDS011;64974;53.144;17.962;2024-03-08T10:01:59;19.13;;;8.48;;
76196;SDS011;64974;53.144;17.962;2024-03-08T10:04:27;19.10;;;7.90;;
76196;SDS011;64974;53.144;17.962;2024-03-08T10:06:55;22.00;;;8.38;;
76196;SDS011;64974;53.144;17.962;2024-03-08T10:09:24;23.77;;;11.38;;
76196;SDS011;64974;53.144;17.962;2024-03-08T10:11:53;22.05;;;8.90;;
76196;SDS011;64974;53.144;17.962;2024-03-08T10:14:20;20.85;;;8.65;;
76196;SDS011;64974;53.144;17.962;2024-03-08T10:16:48;21.23;;;7.95;;
76196;SDS011;64974;53.144;17.962;2024-03-08T10:19:17;19.35;;;7.88;;
76196;SDS011;64974;53.144;17.962;2024-03-08T10:21:48;16.92;;;7.78;;
76196;SDS011;64974;53.144;17.962;2024-03-08T10:24:17;20.75;;;8.05;;
76196;SDS011;64974;53.144;17.962;2024-03-08T10:26:44;13.20;;;5.55;;
76196;SDS011;64974;53.144;17.962;2024-03-08T10:29:12;17.02;;;6.20;;
76196;SDS011;64974;53.144;17.962;2024-03-08T10:31:42;12.55;;;6.57;;
76196;SDS011;64974;53.144;17.962;2024-03-08T10:34:09;14.05;;;6.90;;
76196;SDS011;64974;53.144;17.962;2024-03-08T10:36:39;13.23;;;6.88;;
76196;SDS011;64974;53.144;17.962;2024-03-08T10:39:10;14.25;;;6.30;;
76196;SDS011;64974;53.144;17.962;2024-03-08T10:41:49;12.63;;;5.88;;
76196;SDS011;64974;53.144;17.962;2024-03-08T10:44:21;16.88;;;6.50;;
76196;SDS011;64974;53.144;17.962;2024-03-08T10:46:57;17.67;;;7.03;;
76196;SDS011;64974;53.144;17.962;2024-03-08T10:49:30;15.02;;;7.75;;
76196;SDS011;64974;53.144;17.962;2024-03-08T10:52:01;17.50;;;8.23;;
76196;SDS011;64974;53.144;17.962;2024-03-08T10:54:30;20.25;;;8.38;;
76196;SDS011;64974;53.144;17.962;2024-03-08T10:56:58;14.50;;;5.90;;
76196;SDS011;64974;53.144;17.962;2024-03-08T10:59:26;12.88;;;5.68;;
76196;SDS011;64974;53.144;17.962;2024-03-08T11:01:53;13.88;;;5.70;;
76196;SDS011;64974;53.144;17.962;2024-03-08T11:04:21;13.18;;;6.63;;
76196;SDS011;64974;53.144;17.962;2024-03-08T11:06:50;14.43;;;6.35;;
76196;SDS011;64974;53.144;17.962;2024-03-08T11:09:29;14.93;;;6.78;;
76196;SDS011;64974;53.144;17.962;2024-03-08T11:14:43;12.02;;;5.03;;
76196;SDS011;64974;53.144;17.962;2024-03-08T11:17:14;13.50;;;6.15;;
76196;SDS011;64974;53.144;17.962;2024-03-08T11:19:45;16.40;;;6.50;;
76196;SDS011;64974;53.144;17.962;2024-03-08T11:22:23;12.65;;;5.43;;
76196;SDS011;64974;53.144;17.962;2024-03-08T11:24:54;11.02;;;4.57;;
76196;SDS011;64974;53.144;17.962;2024-03-08T11:27:28;11.02;;;5.82;;
76196;SDS011;64974;53.144;17.962;2024-03-08T11:29:59;13.32;;;6.45;;
76196;SDS011;64974;53.144;17.962;2024-03-08T11:32:34;13.30;;;5.78;;
76196;SDS011;64974;53.144;17.962;2024-03-08T11:35:02;12.38;;;5.47;;
76196;SDS011;64974;53.144;17.962;2024-03-08T11:37:34;11.10;;;4.85;;
76196;SDS011;64974;53.144;17.962;2024-03-08T11:40:06;14.57;;;6.07;;
76196;SDS011;64974;53.144;17.962;2024-03-08T11:42:43;13.20;;;5.65;;
76196;SDS011;64974;53.144;17.962;2024-03-08T11:45:11;10.88;;;5.18;;
76196;SDS011;64974;53.144;17.962;2024-03-08T11:47:38;9.20;;;4.25;;
76196;SDS011;64974;53.144;17.962;2024-03-08T11:50:06;11.60;;;5.18;;
76196;SDS011;64974;53.144;17.962;2024-03-08T11:52:36;15.73;;;6.55;;
76196;SDS011;64974;53.144;17.962;2024-03-08T11:55:04;13.25;;;6.32;;
76196;SDS011;64974;53.144;17.962;2024-03-08T11:57:31;13.10;;;5.55;;
76196;SDS011;64974;53.144;17.962;2024-03-08T11:59:58;13.73;;;5.55;;
76196;SDS011;64974;53.144;17.962;2024-03-08T12:02:31;12.73;;;6.53;;
76196;SDS011;64974;53.144;17.962;2024-03-08T12:05:00;12.75;;;6.20;;
76196;SDS011;64974;53.144;17.962;2024-03-08T12:07:28;19.33;;;6.20;;
76196;SDS011;64974;53.144;17.962;2024-03-08T12:10:16;18.52;;;7.80;;
76196;SDS011;64974;53.144;17.962;2024-03-08T12:12:43;13.10;;;6.43;;
76196;SDS011;64974;53.144;17.962;2024-03-08T12:15:10;23.05;;;8.38;;
76196;SDS011;64974;53.144;17.962;2024-03-08T12:17:37;16.63;;;7.22;;
76196;SDS011;64974;53.144;17.962;2024-03-08T12:20:11;13.80;;;7.18;;
76196;SDS011;64974;53.144;17.962;2024-03-08T12:22:40;12.43;;;6.13;;
76196;SDS011;64974;53.144;17.962;2024-03-08T12:25:08;12.20;;;6.38;;
76196;SDS011;64974;53.144;17.962;2024-03-08T12:27:37;21.02;;;6.57;;
76196;SDS011;64974;53.144;17.962;2024-03-08T12:30:15;15.70;;;6.28;;
76196;SDS011;64974;53.144;17.962;2024-03-08T12:32:47;11.40;;;5.22;;
76196;SDS011;64974;53.144;17.962;2024-03-08T12:35:15;10.30;;;5.65;;
76196;SDS011;64974;53.144;17.962;2024-03-08T12:37:42;12.60;;;4.93;;
76196;SDS011;64974;53.144;17.962;2024-03-08T12:40:09;12.10;;;5.93;;
76196;SDS011;64974;53.144;17.962;2024-03-08T12:42:38;12.35;;;5.95;;
76196;SDS011;64974;53.144;17.962;2024-03-08T12:45:05;15.85;;;5.95;;
76196;SDS011;64974;53.144;17.962;2024-03-08T12:47:35;13.45;;;6.60;;
76196;SDS011;64974;53.144;17.962;2024-03-08T12:50:01;13.13;;;6.57;;
76196;SDS011;64974;53.144;17.962;2024-03-08T12:52:28;16.40;;;6.88;;
76196;SDS011;64974;53.144;17.962;2024-03-08T12:54:55;12.52;;;6.55;;
76196;SDS011;64974;53.144;17.962;2024-03-08T12:57:22;16.55;;;6.75;;
76196;SDS011;64974;53.144;17.962;2024-03-08T12:59:53;12.57;;;5.95;;
76196;SDS011;64974;53.144;17.962;2024-03-08T13:02:20;13.48;;;6.78;;
76196;SDS011;64974;53.144;17.962;2024-03-08T13:04:46;13.32;;;5.80;;
76196;SDS011;64974;53.144;17.962;2024-03-08T13:07:20;12.90;;;6.13;;
76196;SDS011;64974;53.144;17.962;2024-03-08T13:09:48;12.35;;;6.10;;
76196;SDS011;64974;53.144;17.962;2024-03-08T13:12:15;11.02;;;5.80;;
76196;SDS011;64974;53.144;17.962;2024-03-08T13:14:42;12.40;;;6.13;;
76196;SDS011;64974;53.144;17.962;2024-03-08T13:17:10;12.15;;;6.00;;
76196;SDS011;64974;53.144;17.962;2024-03-08T13:19:37;12.43;;;6.03;;
76196;SDS011;64974;53.144;17.962;2024-03-08T13:22:04;12.10;;;5.22;;
76196;SDS011;64974;53.144;17.962;2024-03-08T13:24:32;12.05;;;5.70;;
76196;SDS011;64974;53.144;17.962;2024-03-08T13:26:59;14.98;;;7.40;;
76196;SDS011;64974;53.144;17.962;2024-03-08T13:29:26;12.80;;;5.95;;
76196;SDS011;64974;53.144;17.962;2024-03-08T13:31:52;12.95;;;7.13;;
76196;SDS011;64974;53.144;17.962;2024-03-08T13:34:22;14.00;;;7.40;;
76196;SDS011;64974;53.144;17.962;2024-03-08T13:36:54;12.98;;;5.90;;
76196;SDS011;64974;53.144;17.962;2024-03-08T13:39:25;12.60;;;6.68;;
76196;SDS011;64974;53.144;17.962;2024-03-08T13:41:51;13.15;;;6.80;;
76196;SDS011;64974;53.144;17.962;2024-03-08T13:44:18;13.52;;;6.57;;
76196;SDS011;64974;53.144;17.962;2024-03-08T13:46:46;12.13;;;6.60;;
76196;SDS011;64974;53.144;17.962;2024-03-08T13:49:12;15.10;;;6.63;;
76196;SDS011;64974;53.144;17.962;2024-03-08T13:51:40;14.73;;;7.05;;
76196;SDS011;64974;53.144;17.962;2024-03-08T13:54:07;13.43;;;6.45;;
76196;SDS011;64974;53.144;17.962;2024-03-08T13:56:35;15.90;;;7.55;;
76196;SDS011;64974;53.144;17.962;2024-03-08T13:59:02;15.40;;;6.63;;
76196;SDS011;64974;53.144;17.962;2024-03-08T14:01:28;12.65;;;6.72;;
76196;SDS011;64974;53.144;17.962;2024-03-08T14:03:55;14.82;;;7.47;;
76196;SDS011;64974;53.144;17.962;2024-03-08T14:06:21;16.00;;;8.32;;
76196;SDS011;64974;53.144;17.962;2024-03-08T14:08:52;22.75;;;8.65;;
76196;SDS011;64974;53.144;17.962;2024-03-08T14:11:22;17.85;;;8.00;;
76196;SDS011;64974;53.144;17.962;2024-03-08T14:13:49;15.55;;;7.93;;
76196;SDS011;64974;53.144;17.962;2024-03-08T14:16:16;15.55;;;7.63;;
76196;SDS011;64974;53.144;17.962;2024-03-08T14:18:42;17.48;;;7.97;;
76196;SDS011;64974;53.144;17.962;2024-03-08T14:21:09;17.70;;;8.20;;
76196;SDS011;64974;53.144;17.962;2024-03-08T14:23:35;14.80;;;8.00;;
76196;SDS011;64974;53.144;17.962;2024-03-08T14:26:03;15.93;;;8.05;;
76196;SDS011;64974;53.144;17.962;2024-03-08T14:28:32;13.73;;;7.90;;
76196;SDS011;64974;53.144;17.962;2024-03-08T14:30:58;18.10;;;7.72;;
76196;SDS011;64974;53.144;17.962;2024-03-08T14:33:27;18.40;;;8.98;;
76196;SDS011;64974;53.144;17.962;2024-03-08T14:35:54;15.27;;;7.90;;
76196;SDS011;64974;53.144;17.962;2024-03-08T14:38:20;15.48;;;8.15;;
76196;SDS011;64974;53.144;17.962;2024-03-08T14:40:50;13.38;;;7.57;;
76196;SDS011;64974;53.144;17.962;2024-03-08T14:43:19;16.45;;;9.05;;
76196;SDS011;64974;53.144;17.962;2024-03-08T14:45:46;19.58;;;8.02;;
76196;SDS011;64974;53.144;17.962;2024-03-08T14:48:13;18.38;;;8.98;;
76196;SDS011;64974;53.144;17.962;2024-03-08T14:50:40;16.52;;;8.77;;
76196;SDS011;64974;53.144;17.962;2024-03-08T14:53:09;28.70;;;13.57;;
76196;SDS011;64974;53.144;17.962;2024-03-08T14:55:35;21.75;;;10.95;;
76196;SDS011;64974;53.144;17.962;2024-03-08T14:58:02;18.50;;;9.18;;
76196;SDS011;64974;53.144;17.962;2024-03-08T15:00:30;16.10;;;9.63;;
76196;SDS011;64974;53.144;17.962;2024-03-08T15:02:59;23.73;;;15.70;;
76196;SDS011;64974;53.144;17.962;2024-03-08T15:05:27;20.95;;;11.18;;
76196;SDS011;64974;53.144;17.962;2024-03-08T15:07:57;15.52;;;8.68;;
76196;SDS011;64974;53.144;17.962;2024-03-08T15:10:23;21.58;;;10.82;;